Terminal Aerodrome Forecast
Issued by NWS

Home | Current Version | Previous Version | Graphics & Text | Print | Product List | Glossary On
Versions: 1 2 3 4 5 6 7 8 9 10 11 12 13 14 15 16 17 18
000
FTUS43 KABR 181125
TAFPIR
TAF
KPIR 181125Z 1812/1912 27006KT P6SM FEW250
     FM181600 33015G23KT P6SM FEW250
     FM182300 34011KT P6SM FEW250
     FM190200 VRB06KT P6SM SKC=

USA.gov is the U.S. government's official web portal to all federal, state and local government web resources and services.